sensor_id;sensor_type;location;lat;lon;timestamp;temperature;humidity
6556;DHT22;3311;48.32423000;14.29074500;2024-03-25T00:01:45;12.10;63.80
6556;DHT22;3311;48.32423000;14.29074500;2024-03-25T00:04:12;12.20;64.00
6556;DHT22;3311;48.32423000;14.29074500;2024-03-25T00:06:38;12.10;63.80
6556;DHT22;3311;48.32423000;14.29074500;2024-03-25T00:09:06;12.20;63.90
6556;DHT22;3311;48.32423000;14.29074500;2024-03-25T00:11:39;12.10;63.60
6556;DHT22;3311;48.32423000;14.29074500;2024-03-25T00:14:08;12.20;63.70
6556;DHT22;3311;48.32423000;14.29074500;2024-03-25T00:16:34;12.20;63.80
6556;DHT22;3311;48.32423000;14.29074500;2024-03-25T00:19:03;12.20;63.90
6556;DHT22;3311;48.32423000;14.29074500;2024-03-25T00:21:29;12.20;63.90
6556;DHT22;3311;48.32423000;14.29074500;2024-03-25T00:23:57;12.30;63.90
6556;DHT22;3311;48.32423000;14.29074500;2024-03-25T00:26:23;12.40;63.00
6556;DHT22;3311;48.32423000;14.29074500;2024-03-25T00:28:50;12.30;63.50
6556;DHT22;3311;48.32423000;14.29074500;2024-03-25T00:31:16;12.20;63.80
6556;DHT22;3311;48.32423000;14.29074500;2024-03-25T00:33:44;12.20;63.90
6556;DHT22;3311;48.32423000;14.29074500;2024-03-25T00:36:12;12.20;63.90
6556;DHT22;3311;48.32423000;14.29074500;2024-03-25T00:38:39;12.30;63.60
6556;DHT22;3311;48.32423000;14.29074500;2024-03-25T00:41:05;12.30;63.60
6556;DHT22;3311;48.32423000;14.29074500;2024-03-25T00:43:33;12.20;63.70
6556;DHT22;3311;48.32423000;14.29074500;2024-03-25T00:46:00;12.10;63.90
6556;DHT22;3311;48.32423000;14.29074500;2024-03-25T00:48:27;12.10;63.70
6556;DHT22;3311;48.32423000;14.29074500;2024-03-25T00:50:53;12.00;64.10
6556;DHT22;3311;48.32423000;14.29074500;2024-03-25T00:53:23;12.00;64.10
6556;DHT22;3311;48.32423000;14.29074500;2024-03-25T00:55:49;12.00;63.90
6556;DHT22;3311;48.32423000;14.29074500;2024-03-25T00:58:17;12.10;63.40
6556;DHT22;3311;48.32423000;14.29074500;2024-03-25T01:00:43;12.10;63.30
6556;DHT22;3311;48.32423000;14.29074500;2024-03-25T01:03:11;12.10;63.30
6556;DHT22;3311;48.32423000;14.29074500;2024-03-25T01:05:37;12.20;63.80
6556;DHT22;3311;48.32423000;14.29074500;2024-03-25T01:08:05;12.20;63.70
6556;DHT22;3311;48.32423000;14.29074500;2024-03-25T01:10:33;12.30;63.30
6556;DHT22;3311;48.32423000;14.29074500;2024-03-25T01:13:01;12.20;62.90
6556;DHT22;3311;48.32423000;14.29074500;2024-03-25T01:15:28;12.30;63.60
6556;DHT22;3311;48.32423000;14.29074500;2024-03-25T01:17:55;12.30;63.20
6556;DHT22;3311;48.32423000;14.29074500;2024-03-25T01:20:21;12.40;62.40
6556;DHT22;3311;48.32423000;14.29074500;2024-03-25T01:22:49;12.30;62.30
6556;DHT22;3311;48.32423000;14.29074500;2024-03-25T01:25:15;12.40;62.40
6556;DHT22;3311;48.32423000;14.29074500;2024-03-25T01:27:44;12.40;62.90
6556;DHT22;3311;48.32423000;14.29074500;2024-03-25T01:30:12;12.40;62.80
6556;DHT22;3311;48.32423000;14.29074500;2024-03-25T01:32:40;12.30;62.50
6556;DHT22;3311;48.32423000;14.29074500;2024-03-25T01:35:08;12.30;62.90
6556;DHT22;3311;48.32423000;14.29074500;2024-03-25T01:37:35;12.30;62.90
6556;DHT22;3311;48.32423000;14.29074500;2024-03-25T01:40:02;12.30;62.80
6556;DHT22;3311;48.32423000;14.29074500;2024-03-25T01:42:30;12.30;62.60
6556;DHT22;3311;48.32423000;14.29074500;2024-03-25T01:44:58;12.40;61.90
6556;DHT22;3311;48.32423000;14.29074500;2024-03-25T01:47:25;12.40;62.70
6556;DHT22;3311;48.32423000;14.29074500;2024-03-25T01:49:53;12.30;62.60
6556;DHT22;3311;48.32423000;14.29074500;2024-03-25T01:52:23;12.30;62.50
6556;DHT22;3311;48.32423000;14.29074500;2024-03-25T01:54:51;12.40;62.90
6556;DHT22;3311;48.32423000;14.29074500;2024-03-25T01:57:20;12.30;62.50
6556;DHT22;3311;48.32423000;14.29074500;2024-03-25T01:59:46;12.30;62.60
6556;DHT22;3311;48.32423000;14.29074500;2024-03-25T02:04:42;12.30;62.20
6556;DHT22;3311;48.32423000;14.29074500;2024-03-25T02:07:11;12.30;62.30
6556;DHT22;3311;48.32423000;14.29074500;2024-03-25T02:09:39;12.30;62.70
6556;DHT22;3311;48.32423000;14.29074500;2024-03-25T02:12:08;12.20;62.60
6556;DHT22;3311;48.32423000;14.29074500;2024-03-25T02:14:35;12.30;62.70
6556;DHT22;3311;48.32423000;14.29074500;2024-03-25T02:17:03;12.10;62.90
6556;DHT22;3311;48.32423000;14.29074500;2024-03-25T02:22:00;12.20;62.30
6556;DHT22;3311;48.32423000;14.29074500;2024-03-25T02:24:27;12.40;62.10
6556;DHT22;3311;48.32423000;14.29074500;2024-03-25T02:26:56;12.40;62.60
6556;DHT22;3311;48.32423000;14.29074500;2024-03-25T02:29:22;12.30;62.20
6556;DHT22;3311;48.32423000;14.29074500;2024-03-25T02:31:50;15.10;65.40
6556;DHT22;3311;48.32423000;14.29074500;2024-03-25T02:34:19;12.40;62.40
6556;DHT22;3311;48.32423000;14.29074500;2024-03-25T02:36:46;12.30;62.40
6556;DHT22;3311;48.32423000;14.29074500;2024-03-25T02:39:12;12.30;62.30
6556;DHT22;3311;48.32423000;14.29074500;2024-03-25T02:41:40;12.30;61.80
6556;DHT22;3311;48.32423000;14.29074500;2024-03-25T02:44:08;12.30;62.30
6556;DHT22;3311;48.32423000;14.29074500;2024-03-25T02:46:35;12.20;61.50
6556;DHT22;3311;48.32423000;14.29074500;2024-03-25T02:49:02;12.20;62.20
6556;DHT22;3311;48.32423000;14.29074500;2024-03-25T02:51:29;12.40;62.30
6556;DHT22;3311;48.32423000;14.29074500;2024-03-25T02:53:55;12.30;61.60
6556;DHT22;3311;48.32423000;14.29074500;2024-03-25T02:56:22;12.30;61.50
6556;DHT22;3311;48.32423000;14.29074500;2024-03-25T02:58:49;12.30;61.70
6556;DHT22;3311;48.32423000;14.29074500;2024-03-25T03:01:18;12.20;61.70
6556;DHT22;3311;48.32423000;14.29074500;2024-03-25T03:03:44;12.30;61.90
6556;DHT22;3311;48.32423000;14.29074500;2024-03-25T03:06:12;12.20;61.30
6556;DHT22;3311;48.32423000;14.29074500;2024-03-25T03:08:38;12.30;61.10
6556;DHT22;3311;48.32423000;14.29074500;2024-03-25T03:11:05;12.30;61.10
6556;DHT22;3311;48.32423000;14.29074500;2024-03-25T03:13:32;12.50;62.40
6556;DHT22;3311;48.32423000;14.29074500;2024-03-25T03:15:59;12.40;61.10
6556;DHT22;3311;48.32423000;14.29074500;2024-03-25T03:18:27;12.40;61.50
6556;DHT22;3311;48.32423000;14.29074500;2024-03-25T03:20:54;12.50;61.20
6556;DHT22;3311;48.32423000;14.29074500;2024-03-25T03:23:22;12.40;60.80
6556;DHT22;3311;48.32423000;14.29074500;2024-03-25T03:25:49;12.50;60.70
6556;DHT22;3311;48.32423000;14.29074500;2024-03-25T03:28:16;12.50;61.10
6556;DHT22;3311;48.32423000;14.29074500;2024-03-25T03:30:44;12.40;61.10
6556;DHT22;3311;48.32423000;14.29074500;2024-03-25T03:33:10;12.40;61.10
6556;DHT22;3311;48.32423000;14.29074500;2024-03-25T03:35:39;12.40;61.20
6556;DHT22;3311;48.32423000;14.29074500;2024-03-25T03:38:05;12.50;61.10
6556;DHT22;3311;48.32423000;14.29074500;2024-03-25T03:40:33;12.30;61.00
6556;DHT22;3311;48.32423000;14.29074500;2024-03-25T03:42:59;12.30;61.30
6556;DHT22;3311;48.32423000;14.29074500;2024-03-25T03:45:26;12.40;60.40
6556;DHT22;3311;48.32423000;14.29074500;2024-03-25T03:47:58;12.40;60.90
6556;DHT22;3311;48.32423000;14.29074500;2024-03-25T03:50:25;12.40;60.20
6556;DHT22;3311;48.32423000;14.29074500;2024-03-25T03:52:53;12.40;60.80
6556;DHT22;3311;48.32423000;14.29074500;2024-03-25T03:55:20;12.40;61.10
6556;DHT22;3311;48.32423000;14.29074500;2024-03-25T03:57:47;12.40;61.30
6556;DHT22;3311;48.32423000;14.29074500;2024-03-25T04:00:15;12.50;60.80
6556;DHT22;3311;48.32423000;14.29074500;2024-03-25T04:02:41;12.40;60.40
6556;DHT22;3311;48.32423000;14.29074500;2024-03-25T04:05:09;12.40;60.40
6556;DHT22;3311;48.32423000;14.29074500;2024-03-25T04:07:35;12.30;60.70
6556;DHT22;3311;48.32423000;14.29074500;2024-03-25T04:10:07;12.40;60.30
6556;DHT22;3311;48.32423000;14.29074500;2024-03-25T04:12:33;12.50;60.70
6556;DHT22;3311;48.32423000;14.29074500;2024-03-25T04:15:01;12.50;60.10
6556;DHT22;3311;48.32423000;14.29074500;2024-03-25T04:17:27;12.30;60.30
6556;DHT22;3311;48.32423000;14.29074500;2024-03-25T04:19:54;12.40;61.00
6556;DHT22;3311;48.32423000;14.29074500;2024-03-25T04:22:20;12.40;60.60
6556;DHT22;3311;48.32423000;14.29074500;2024-03-25T04:24:48;12.20;60.80
6556;DHT22;3311;48.32423000;14.29074500;2024-03-25T04:27:16;12.20;61.00
6556;DHT22;3311;48.32423000;14.29074500;2024-03-25T04:29:46;12.40;60.40
6556;DHT22;3311;48.32423000;14.29074500;2024-03-25T04:32:12;12.40;60.10
6556;DHT22;3311;48.32423000;14.29074500;2024-03-25T04:39:32;12.50;59.90
6556;DHT22;3311;48.32423000;14.29074500;2024-03-25T04:41:59;12.50;60.50
6556;DHT22;3311;48.32423000;14.29074500;2024-03-25T04:44:28;12.50;59.90
6556;DHT22;3311;48.32423000;14.29074500;2024-03-25T04:46:54;12.50;60.40
6556;DHT22;3311;48.32423000;14.29074500;2024-03-25T04:49:20;12.40;60.30
6556;DHT22;3311;48.32423000;14.29074500;2024-03-25T04:51:47;12.50;59.90
6556;DHT22;3311;48.32423000;14.29074500;2024-03-25T04:54:14;12.50;60.40
6556;DHT22;3311;48.32423000;14.29074500;2024-03-25T04:56:40;12.40;60.50
6556;DHT22;3311;48.32423000;14.29074500;2024-03-25T04:59:06;12.40;60.70
6556;DHT22;3311;48.32423000;14.29074500;2024-03-25T05:01:34;12.30;60.30
6556;DHT22;3311;48.32423000;14.29074500;2024-03-25T05:04:00;12.40;60.00
6556;DHT22;3311;48.32423000;14.29074500;2024-03-25T05:06:26;12.50;60.50
6556;DHT22;3311;48.32423000;14.29074500;2024-03-25T05:08:53;12.50;60.10
6556;DHT22;3311;48.32423000;14.29074500;2024-03-25T05:11:19;12.50;60.00
6556;DHT22;3311;48.32423000;14.29074500;2024-03-25T05:13:45;12.60;60.20
6556;DHT22;3311;48.32423000;14.29074500;2024-03-25T05:16:12;12.50;60.10
6556;DHT22;3311;48.32423000;14.29074500;2024-03-25T05:21:06;12.80;60.00
6556;DHT22;3311;48.32423000;14.29074500;2024-03-25T05:23:33;12.80;59.60
6556;DHT22;3311;48.32423000;14.29074500;2024-03-25T05:25:59;12.70;60.00
6556;DHT22;3311;48.32423000;14.29074500;2024-03-25T05:28:25;12.70;59.90
6556;DHT22;3311;48.32423000;14.29074500;2024-03-25T05:30:52;12.70;60.40
6556;DHT22;3311;48.32423000;14.29074500;2024-03-25T05:33:18;12.90;60.20
6556;DHT22;3311;48.32423000;14.29074500;2024-03-25T05:35:46;12.90;60.70
6556;DHT22;3311;48.32423000;14.29074500;2024-03-25T05:38:12;12.90;59.90
6556;DHT22;3311;48.32423000;14.29074500;2024-03-25T05:40:38;13.10;60.60
6556;DHT22;3311;48.32423000;14.29074500;2024-03-25T05:43:05;13.00;60.40
6556;DHT22;3311;48.32423000;14.29074500;2024-03-25T05:45:31;13.20;61.10
6556;DHT22;3311;48.32423000;14.29074500;2024-03-25T05:47:58;13.20;60.30
6556;DHT22;3311;48.32423000;14.29074500;2024-03-25T05:50:24;13.10;60.50
6556;DHT22;3311;48.32423000;14.29074500;2024-03-25T05:52:52;12.90;61.00
6556;DHT22;3311;48.32423000;14.29074500;2024-03-25T05:55:18;13.00;61.40
6556;DHT22;3311;48.32423000;14.29074500;2024-03-25T05:57:44;13.00;61.90
6556;DHT22;3311;48.32423000;14.29074500;2024-03-25T06:00:12;12.90;62.30
6556;DHT22;3311;48.32423000;14.29074500;2024-03-25T06:02:38;12.90;62.20
6556;DHT22;3311;48.32423000;14.29074500;2024-03-25T06:05:05;12.80;62.20
6556;DHT22;3311;48.32423000;14.29074500;2024-03-25T06:07:33;13.10;61.60
6556;DHT22;3311;48.32423000;14.29074500;2024-03-25T06:10:01;13.10;62.10
6556;DHT22;3311;48.32423000;14.29074500;2024-03-25T06:12:27;13.20;62.30
6556;DHT22;3311;48.32423000;14.29074500;2024-03-25T06:14:53;13.30;62.40
6556;DHT22;3311;48.32423000;14.29074500;2024-03-25T06:17:20;13.30;62.40
6556;DHT22;3311;48.32423000;14.29074500;2024-03-25T06:19:46;13.40;62.00
6556;DHT22;3311;48.32423000;14.29074500;2024-03-25T06:22:12;13.50;61.40
6556;DHT22;3311;48.32423000;14.29074500;2024-03-25T06:24:38;13.40;62.00
6556;DHT22;3311;48.32423000;14.29074500;2024-03-25T06:27:06;13.40;61.60
6556;DHT22;3311;48.32423000;14.29074500;2024-03-25T06:29:33;13.50;62.20
6556;DHT22;3311;48.32423000;14.29074500;2024-03-25T06:31:59;13.40;61.50
6556;DHT22;3311;48.32423000;14.29074500;2024-03-25T06:34:43;13.50;62.10
6556;DHT22;3311;48.32423000;14.29074500;2024-03-25T06:37:10;13.50;61.50
6556;DHT22;3311;48.32423000;14.29074500;2024-03-25T06:39:36;13.60;61.90
6556;DHT22;3311;48.32423000;14.29074500;2024-03-25T06:42:03;13.40;61.70
6556;DHT22;3311;48.32423000;14.29074500;2024-03-25T06:44:31;13.40;62.10
6556;DHT22;3311;48.32423000;14.29074500;2024-03-25T06:46:57;13.30;63.00
6556;DHT22;3311;48.32423000;14.29074500;2024-03-25T06:49:24;13.40;62.00
6556;DHT22;3311;48.32423000;14.29074500;2024-03-25T06:54:16;13.40;61.50
6556;DHT22;3311;48.32423000;14.29074500;2024-03-25T06:56:43;13.40;62.10
6556;DHT22;3311;48.32423000;14.29074500;2024-03-25T06:59:12;13.40;62.60
6556;DHT22;3311;48.32423000;14.29074500;2024-03-25T07:01:40;13.40;63.10
6556;DHT22;3311;48.32423000;14.29074500;2024-03-25T07:04:06;13.50;62.60
6556;DHT22;3311;48.32423000;14.29074500;2024-03-25T07:06:32;13.60;61.30
6556;DHT22;3311;48.32423000;14.29074500;2024-03-25T07:08:58;13.60;61.90
6556;DHT22;3311;48.32423000;14.29074500;2024-03-25T07:11:25;13.60;62.20
6556;DHT22;3311;48.32423000;14.29074500;2024-03-25T07:13:51;13.60;61.60
6556;DHT22;3311;48.32423000;14.29074500;2024-03-25T07:16:17;13.60;62.20
6556;DHT22;3311;48.32423000;14.29074500;2024-03-25T07:18:45;13.60;62.10
6556;DHT22;3311;48.32423000;14.29074500;2024-03-25T07:21:12;13.60;61.00
6556;DHT22;3311;48.32423000;14.29074500;2024-03-25T07:23:38;13.60;62.10
6556;DHT22;3311;48.32423000;14.29074500;2024-03-25T07:26:05;13.80;61.30
6556;DHT22;3311;48.32423000;14.29074500;2024-03-25T07:28:31;13.80;62.60
6556;DHT22;3311;48.32423000;14.29074500;2024-03-25T07:30:57;13.80;61.20
6556;DHT22;3311;48.32423000;14.29074500;2024-03-25T07:33:24;13.60;61.50
6556;DHT22;3311;48.32423000;14.29074500;2024-03-25T07:35:51;13.80;61.50
6556;DHT22;3311;48.32423000;14.29074500;2024-03-25T07:38:18;13.70;60.70
6556;DHT22;3311;48.32423000;14.29074500;2024-03-25T07:40:44;13.70;61.50
6556;DHT22;3311;48.32423000;14.29074500;2024-03-25T07:43:10;13.60;60.70
6556;DHT22;3311;48.32423000;14.29074500;2024-03-25T07:45:36;13.70;60.50
6556;DHT22;3311;48.32423000;14.29074500;2024-03-25T07:48:03;15.70;63.10
6556;DHT22;3311;48.32423000;14.29074500;2024-03-25T07:50:31;13.80;60.90
6556;DHT22;3311;48.32423000;14.29074500;2024-03-25T07:52:58;13.80;60.70
6556;DHT22;3311;48.32423000;14.29074500;2024-03-25T07:55:25;13.80;60.30
6556;DHT22;3311;48.32423000;14.29074500;2024-03-25T07:57:51;13.80;60.20
6556;DHT22;3311;48.32423000;14.29074500;2024-03-25T08:00:18;13.90;60.70
6556;DHT22;3311;48.32423000;14.29074500;2024-03-25T08:02:44;13.90;60.30
6556;DHT22;3311;48.32423000;14.29074500;2024-03-25T08:05:11;13.90;60.50
6556;DHT22;3311;48.32423000;14.29074500;2024-03-25T08:07:37;13.90;60.10
6556;DHT22;3311;48.32423000;14.29074500;2024-03-25T08:10:06;14.00;59.80
6556;DHT22;3311;48.32423000;14.29074500;2024-03-25T08:12:32;13.90;60.20
6556;DHT22;3311;48.32423000;14.29074500;2024-03-25T08:14:58;14.00;60.40
6556;DHT22;3311;48.32423000;14.29074500;2024-03-25T08:17:25;14.10;60.00
6556;DHT22;3311;48.32423000;14.29074500;2024-03-25T08:19:51;14.20;59.80
6556;DHT22;3311;48.32423000;14.29074500;2024-03-25T08:22:17;14.20;59.70
6556;DHT22;3311;48.32423000;14.29074500;2024-03-25T08:24:44;14.40;59.70
6556;DHT22;3311;48.32423000;14.29074500;2024-03-25T08:27:12;14.60;60.00
6556;DHT22;3311;48.32423000;14.29074500;2024-03-25T08:29:38;14.60;59.40
6556;DHT22;3311;48.32423000;14.29074500;2024-03-25T08:32:05;14.60;59.90
6556;DHT22;3311;48.32423000;14.29074500;2024-03-25T08:34:32;14.80;60.10
6556;DHT22;3311;48.32423000;14.29074500;2024-03-25T08:36:58;14.80;59.30
6556;DHT22;3311;48.32423000;14.29074500;2024-03-25T08:39:24;14.70;58.80
6556;DHT22;3311;48.32423000;14.29074500;2024-03-25T08:41:51;14.70;59.40
6556;DHT22;3311;48.32423000;14.29074500;2024-03-25T08:44:19;14.70;59.20
6556;DHT22;3311;48.32423000;14.29074500;2024-03-25T08:46:45;14.80;59.10
6556;DHT22;3311;48.32423000;14.29074500;2024-03-25T08:49:12;14.80;59.30
6556;DHT22;3311;48.32423000;14.29074500;2024-03-25T08:51:38;14.80;59.10
6556;DHT22;3311;48.32423000;14.29074500;2024-03-25T08:54:05;14.80;59.50
6556;DHT22;3311;48.32423000;14.29074500;2024-03-25T08:56:32;14.80;59.90
6556;DHT22;3311;48.32423000;14.29074500;2024-03-25T08:58:58;14.80;59.50
6556;DHT22;3311;48.32423000;14.29074500;2024-03-25T09:01:26;14.70;59.40
6556;DHT22;3311;48.32423000;14.29074500;2024-03-25T09:03:53;14.80;59.90
6556;DHT22;3311;48.32423000;14.29074500;2024-03-25T09:06:19;14.90;59.40
6556;DHT22;3311;48.32423000;14.29074500;2024-03-25T09:08:46;15.00;58.90
6556;DHT22;3311;48.32423000;14.29074500;2024-03-25T09:11:36;15.00;58.40
6556;DHT22;3311;48.32423000;14.29074500;2024-03-25T09:14:02;15.10;59.60
6556;DHT22;3311;48.32423000;14.29074500;2024-03-25T09:16:30;15.20;59.30
6556;DHT22;3311;48.32423000;14.29074500;2024-03-25T09:18:57;15.20;58.70
6556;DHT22;3311;48.32423000;14.29074500;2024-03-25T09:21:23;15.10;59.10
6556;DHT22;3311;48.32423000;14.29074500;2024-03-25T09:23:50;15.00;58.10
6556;DHT22;3311;48.32423000;14.29074500;2024-03-25T09:26:17;15.00;58.50
6556;DHT22;3311;48.32423000;14.29074500;2024-03-25T09:28:43;15.10;58.80
6556;DHT22;3311;48.32423000;14.29074500;2024-03-25T09:31:09;15.20;58.80
6556;DHT22;3311;48.32423000;14.29074500;2024-03-25T09:33:37;15.40;59.00
6556;DHT22;3311;48.32423000;14.29074500;2024-03-25T09:36:05;15.50;58.40
6556;DHT22;3311;48.32423000;14.29074500;2024-03-25T09:38:31;15.50;58.50
6556;DHT22;3311;48.32423000;14.29074500;2024-03-25T09:40:58;15.60;58.80
6556;DHT22;3311;48.32423000;14.29074500;2024-03-25T09:43:27;15.60;58.40
6556;DHT22;3311;48.32423000;14.29074500;2024-03-25T09:45:57;15.60;58.00
6556;DHT22;3311;48.32423000;14.29074500;2024-03-25T09:48:24;15.60;58.30
6556;DHT22;3311;48.32423000;14.29074500;2024-03-25T09:50:53;15.60;58.30
6556;DHT22;3311;48.32423000;14.29074500;2024-03-25T09:53:19;15.50;58.10
6556;DHT22;3311;48.32423000;14.29074500;2024-03-25T09:55:47;15.50;57.80
6556;DHT22;3311;48.32423000;14.29074500;2024-03-25T09:58:14;15.50;58.10
6556;DHT22;3311;48.32423000;14.29074500;2024-03-25T10:00:41;15.50;58.50
6556;DHT22;3311;48.32423000;14.29074500;2024-03-25T10:03:08;15.60;58.10
6556;DHT22;3311;48.32423000;14.29074500;2024-03-25T10:05:34;15.60;58.40
6556;DHT22;3311;48.32423000;14.29074500;2024-03-25T10:08:03;15.60;57.80
6556;DHT22;3311;48.32423000;14.29074500;2024-03-25T10:10:29;15.50;57.60
6556;DHT22;3311;48.32423000;14.29074500;2024-03-25T10:12:56;15.30;57.60
6556;DHT22;3311;48.32423000;14.29074500;2024-03-25T10:15:22;15.20;57.50
6556;DHT22;3311;48.32423000;14.29074500;2024-03-25T10:17:49;15.20;57.70
6556;DHT22;3311;48.32423000;14.29074500;2024-03-25T10:20:16;15.30;57.60
6556;DHT22;3311;48.32423000;14.29074500;2024-03-25T10:22:42;15.40;58.10
6556;DHT22;3311;48.32423000;14.29074500;2024-03-25T10:25:22;15.40;58.00
6556;DHT22;3311;48.32423000;14.29074500;2024-03-25T10:27:56;15.40;57.50
6556;DHT22;3311;48.32423000;14.29074500;2024-03-25T10:30:22;15.40;58.40
6556;DHT22;3311;48.32423000;14.29074500;2024-03-25T10:32:59;15.50;58.00
6556;DHT22;3311;48.32423000;14.29074500;2024-03-25T10:35:30;15.50;58.50
6556;DHT22;3311;48.32423000;14.29074500;2024-03-25T10:37:59;15.40;57.90
6556;DHT22;3311;48.32423000;14.29074500;2024-03-25T10:40:29;15.40;57.90
6556;DHT22;3311;48.32423000;14.29074500;2024-03-25T10:43:01;15.50;57.10
6556;DHT22;3311;48.32423000;14.29074500;2024-03-25T10:45:29;15.40;56.70
6556;DHT22;3311;48.32423000;14.29074500;2024-03-25T10:47:57;15.30;56.90
6556;DHT22;3311;48.32423000;14.29074500;2024-03-25T10:50:28;15.40;57.30
6556;DHT22;3311;48.32423000;14.29074500;2024-03-25T10:52:55;15.50;57.10
6556;DHT22;3311;48.32423000;14.29074500;2024-03-25T10:55:23;15.50;57.70
6556;DHT22;3311;48.32423000;14.29074500;2024-03-25T10:57:52;15.50;57.10
6556;DHT22;3311;48.32423000;14.29074500;2024-03-25T11:00:22;15.50;57.50
6556;DHT22;3311;48.32423000;14.29074500;2024-03-25T11:02:50;15.50;57.50
6556;DHT22;3311;48.32423000;14.29074500;2024-03-25T11:05:17;15.50;57.10
6556;DHT22;3311;48.32423000;14.29074500;2024-03-25T11:07:44;15.50;57.10
6556;DHT22;3311;48.32423000;14.29074500;2024-03-25T11:10:12;15.40;57.30
6556;DHT22;3311;48.32423000;14.29074500;2024-03-25T11:12:41;15.40;57.50
6556;DHT22;3311;48.32423000;14.29074500;2024-03-25T11:15:10;15.40;56.40
6556;DHT22;3311;48.32423000;14.29074500;2024-03-25T11:17:36;15.30;57.00
6556;DHT22;3311;48.32423000;14.29074500;2024-03-25T11:20:07;15.40;57.00
6556;DHT22;3311;48.32423000;14.29074500;2024-03-25T11:22:34;15.50;57.30
6556;DHT22;3311;48.32423000;14.29074500;2024-03-25T11:25:08;15.50;56.70
6556;DHT22;3311;48.32423000;14.29074500;2024-03-25T11:27:38;15.50;56.10
6556;DHT22;3311;48.32423000;14.29074500;2024-03-25T11:30:06;15.50;56.70
6556;DHT22;3311;48.32423000;14.29074500;2024-03-25T11:32:44;15.50;56.10
6556;DHT22;3311;48.32423000;14.29074500;2024-03-25T11:35:11;15.50;56.40
6556;DHT22;3311;48.32423000;14.29074500;2024-03-25T11:37:41;15.50;56.20
6556;DHT22;3311;48.32423000;14.29074500;2024-03-25T11:40:09;15.60;57.30
6556;DHT22;3311;48.32423000;14.29074500;2024-03-25T11:42:38;15.60;56.40
6556;DHT22;3311;48.32423000;14.29074500;2024-03-25T11:45:06;15.60;56.70
6556;DHT22;3311;48.32423000;14.29074500;2024-03-25T11:47:33;15.60;56.20
6556;DHT22;3311;48.32423000;14.29074500;2024-03-25T11:50:07;15.60;55.50
6556;DHT22;3311;48.32423000;14.29074500;2024-03-25T11:52:34;15.60;56.20
6556;DHT22;3311;48.32423000;14.29074500;2024-03-25T11:55:01;15.50;55.60
6556;DHT22;3311;48.32423000;14.29074500;2024-03-25T11:57:28;15.40;55.50
6556;DHT22;3311;48.32423000;14.29074500;2024-03-25T11:59:55;15.50;56.40
6556;DHT22;3311;48.32423000;14.29074500;2024-03-25T12:02:21;15.50;54.80
6556;DHT22;3311;48.32423000;14.29074500;2024-03-25T12:04:48;15.50;54.70
6556;DHT22;3311;48.32423000;14.29074500;2024-03-25T12:07:16;15.50;54.50
6556;DHT22;3311;48.32423000;14.29074500;2024-03-25T12:09:43;15.50;55.90
6556;DHT22;3311;48.32423000;14.29074500;2024-03-25T12:12:28;15.50;56.10
6556;DHT22;3311;48.32423000;14.29074500;2024-03-25T12:14:56;15.50;56.40
6556;DHT22;3311;48.32423000;14.29074500;2024-03-25T12:17:23;15.50;55.90
6556;DHT22;3311;48.32423000;14.29074500;2024-03-25T12:20:07;15.50;55.40
6556;DHT22;3311;48.32423000;14.29074500;2024-03-25T12:22:37;15.50;55.70
6556;DHT22;3311;48.32423000;14.29074500;2024-03-25T12:25:06;15.40;55.60
6556;DHT22;3311;48.32423000;14.29074500;2024-03-25T12:27:33;15.40;55.80
6556;DHT22;3311;48.32423000;14.29074500;2024-03-25T12:30:02;15.30;55.30
6556;DHT22;3311;48.32423000;14.29074500;2024-03-25T12:32:37;15.30;55.50
6556;DHT22;3311;48.32423000;14.29074500;2024-03-25T12:35:07;15.40;55.60
6556;DHT22;3311;48.32423000;14.29074500;2024-03-25T12:37:40;15.40;55.00
6556;DHT22;3311;48.32423000;14.29074500;2024-03-25T12:40:10;15.30;53.90
6556;DHT22;3311;48.32423000;14.29074500;2024-03-25T12:42:38;15.30;54.40
6556;DHT22;3311;48.32423000;14.29074500;2024-03-25T12:45:05;15.30;54.90
6556;DHT22;3311;48.32423000;14.29074500;2024-03-25T12:47:32;15.30;56.30
6556;DHT22;3311;48.32423000;14.29074500;2024-03-25T12:49:59;15.40;55.80
6556;DHT22;3311;48.32423000;14.29074500;2024-03-25T12:52:26;15.40;55.70
6556;DHT22;3311;48.32423000;14.29074500;2024-03-25T12:54:54;15.60;55.90
6556;DHT22;3311;48.32423000;14.29074500;2024-03-25T12:57:20;15.60;55.90
6556;DHT22;3311;48.32423000;14.29074500;2024-03-25T12:59:46;15.60;55.00
6556;DHT22;3311;48.32423000;14.29074500;2024-03-25T13:02:13;15.50;54.60
6556;DHT22;3311;48.32423000;14.29074500;2024-03-25T13:04:41;15.50;55.40
6556;DHT22;3311;48.32423000;14.29074500;2024-03-25T13:07:07;15.50;54.80
6556;DHT22;3311;48.32423000;14.29074500;2024-03-25T13:09:35;15.50;54.40
6556;DHT22;3311;48.32423000;14.29074500;2024-03-25T13:12:06;15.50;55.20
6556;DHT22;3311;48.32423000;14.29074500;2024-03-25T13:14:35;15.50;54.80
6556;DHT22;3311;48.32423000;14.29074500;2024-03-25T13:17:01;15.50;55.20
6556;DHT22;3311;48.32423000;14.29074500;2024-03-25T13:19:29;15.50;55.40
6556;DHT22;3311;48.32423000;14.29074500;2024-03-25T13:21:56;15.50;55.20
6556;DHT22;3311;48.32423000;14.29074500;2024-03-25T13:24:22;15.50;55.00
6556;DHT22;3311;48.32423000;14.29074500;2024-03-25T13:26:48;15.50;54.50
6556;DHT22;3311;48.32423000;14.29074500;2024-03-25T13:29:17;15.50;54.50
6556;DHT22;3311;48.32423000;14.29074500;2024-03-25T13:31:43;15.50;54.70
6556;DHT22;3311;48.32423000;14.29074500;2024-03-25T13:34:09;15.40;54.70
6556;DHT22;3311;48.32423000;14.29074500;2024-03-25T13:36:36;15.40;55.30
6556;DHT22;3311;48.32423000;14.29074500;2024-03-25T13:39:02;15.40;55.10
6556;DHT22;3311;48.32423000;14.29074500;2024-03-25T13:41:29;15.40;54.70
6556;DHT22;3311;48.32423000;14.29074500;2024-03-25T13:43:55;15.50;55.60
6556;DHT22;3311;48.32423000;14.29074500;2024-03-25T13:46:23;15.50;55.00
6556;DHT22;3311;48.32423000;14.29074500;2024-03-25T13:48:49;15.50;54.60
6556;DHT22;3311;48.32423000;14.29074500;2024-03-25T13:51:15;15.50;54.60